Warwick, Canada
Current Conditions -  °F | °C
As of 9:03 PM on Saturday 20 Dec 2014 (Local Time) from CYSC Reporting Station
Haze Haze  
Wind Chill: -15°   Ceiling: 400
Heat Index: -11°   Visibility: 0.75mi
Dew Point: -12°   Wind: 5mph
Humidity: 92%   Direction: 120°ESE
Pressure: 30.3"   Gusts: NA
Location:  45.95°N, 71.98°W
Report Text: CYSC 210203Z AUTO 12004KT 3/4SM BR OVC004 M11/M12 A3030 RMK ICG SLP279
Loading
Personal Weather Stations






























Interactive Weather Map New forecast layout! Learn more

10-Day Weather Forecast

Advertisements
Track Severe Weather on mobile